createdAt,value
2022-10-14T00:02:14.077Z,0.47
2022-10-14T00:05:16.230Z,2.50
2022-10-14T00:08:18.241Z,1.95
2022-10-14T00:11:26.402Z,0.25
2022-10-14T00:14:28.528Z,0.30
2022-10-14T00:17:30.608Z,1.10
2022-10-14T00:20:33.110Z,0.50
2022-10-14T00:23:35.844Z,1.50
2022-10-14T00:26:40.009Z,0.40
2022-10-14T00:32:44.427Z,0.43
2022-10-14T00:36:01.122Z,0.35
2022-10-14T00:39:03.526Z,0.60
2022-10-14T00:42:05.663Z,0.68
2022-10-14T00:45:19.911Z,1.65
2022-10-14T00:48:24.839Z,0.77
2022-10-14T00:51:27.623Z,2.53
2022-10-14T00:54:35.274Z,0.88
2022-10-14T00:57:39.068Z,2.15
2022-10-14T01:00:44.375Z,1.02
2022-10-14T01:03:46.522Z,0.73
2022-10-14T01:07:03.327Z,0.70
2022-10-14T01:10:31.343Z,1.35
2022-10-14T01:13:48.055Z,0.50
2022-10-14T01:17:00.880Z,1.17
2022-10-14T01:20:44.425Z,0.82
2022-10-14T01:24:11.070Z,0.95
2022-10-14T01:27:25.033Z,2.22
2022-10-14T01:30:33.700Z,1.92
2022-10-14T01:33:42.931Z,0.77
2022-10-14T01:36:59.477Z,1.30
2022-10-14T01:40:08.661Z,0.90
2022-10-14T01:43:13.527Z,1.05
2022-10-14T01:46:18.422Z,1.85
2022-10-14T01:49:44.222Z,1.50
2022-10-14T01:53:08.504Z,0.90
2022-10-14T01:56:12.622Z,0.73
2022-10-14T02:02:20.011Z,1.00
2022-10-14T02:05:33.750Z,1.00
2022-10-14T02:08:52.954Z,1.63
2022-10-14T02:12:06.976Z,2.17
2022-10-14T02:15:27.725Z,1.00
2022-10-14T02:19:09.149Z,0.55
2022-10-14T02:22:30.328Z,0.52
2022-10-14T02:25:36.066Z,1.00
2022-10-14T02:28:39.959Z,2.15
2022-10-14T02:31:44.255Z,1.25
2022-10-14T02:34:51.454Z,0.30
2022-10-14T02:37:55.838Z,0.82
2022-10-14T02:44:01.990Z,0.45
2022-10-14T02:47:04.341Z,0.52
2022-10-14T02:50:09.636Z,1.02
2022-10-14T02:53:16.204Z,1.17
2022-10-14T02:56:19.384Z,0.60
2022-10-14T02:59:21.719Z,7.35
2022-10-14T03:02:24.045Z,1.98
2022-10-14T03:05:26.659Z,0.50
2022-10-14T03:08:29.070Z,1.45
2022-10-14T03:11:31.112Z,0.85
2022-10-14T03:14:33.209Z,0.77
2022-10-14T03:17:37.291Z,1.23
2022-10-14T03:20:39.314Z,0.95
2022-10-14T03:23:41.453Z,1.33
2022-10-14T03:26:45.114Z,0.63
2022-10-14T03:29:47.249Z,1.48
2022-10-14T03:32:49.538Z,0.73
2022-10-14T03:35:51.577Z,0.73
2022-10-14T03:38:55.266Z,5.60
2022-10-14T03:41:57.276Z,1.03
2022-10-14T03:45:00.851Z,1.13
2022-10-14T03:48:02.976Z,3.97
2022-10-14T03:51:10.574Z,3.25
2022-10-14T03:54:12.670Z,2.33
2022-10-14T03:57:14.761Z,0.80
2022-10-14T04:00:17.089Z,0.70
2022-10-14T04:03:19.111Z,1.38
2022-10-14T04:06:21.182Z,0.60
2022-10-14T04:09:23.363Z,1.48
2022-10-14T04:12:25.727Z,1.52
2022-10-14T04:15:38.434Z,4.75
2022-10-14T04:18:54.071Z,1.52
2022-10-14T04:21:56.494Z,1.33
2022-10-14T04:25:00.768Z,1.38
2022-10-14T04:28:02.925Z,1.60
2022-10-14T04:31:06.450Z,2.43
2022-10-14T04:34:09.580Z,2.45
2022-10-14T04:37:11.732Z,1.85
2022-10-14T04:40:14.007Z,1.40
2022-10-14T04:43:16.297Z,2.85
2022-10-14T04:46:20.330Z,1.65
2022-10-14T04:49:22.526Z,1.27
2022-10-14T04:52:24.870Z,1.58
2022-10-14T04:55:27.086Z,3.25
2022-10-14T04:58:29.103Z,2.22
2022-10-14T05:01:33.910Z,4.18
2022-10-14T05:04:36.304Z,2.30
2022-10-14T05:07:38.555Z,2.00
2022-10-14T05:10:40.550Z,5.30
2022-10-14T05:13:43.459Z,2.80
2022-10-14T05:16:45.472Z,4.28
2022-10-14T05:19:47.638Z,2.47
2022-10-14T05:22:49.817Z,3.05
2022-10-14T05:25:54.571Z,3.70
2022-10-14T05:28:56.628Z,4.72
2022-10-14T05:32:00.601Z,3.90
2022-10-14T05:35:03.101Z,3.85
2022-10-14T05:38:06.064Z,4.40
2022-10-14T05:41:08.094Z,6.72
2022-10-14T05:44:11.690Z,4.20
2022-10-14T05:47:13.737Z,5.70
2022-10-14T05:50:16.037Z,7.03
2022-10-14T05:53:18.074Z,11.57
2022-10-14T05:56:20.222Z,6.32
2022-10-14T05:59:23.388Z,7.25
2022-10-14T06:02:27.162Z,7.25
2022-10-14T06:05:29.148Z,6.57
2022-10-14T06:08:31.162Z,8.40
2022-10-14T06:11:33.451Z,7.25
2022-10-14T06:14:38.719Z,7.80
2022-10-14T06:17:41.289Z,10.82
2022-10-14T06:20:44.631Z,10.07
2022-10-14T06:23:46.887Z,8.32
2022-10-14T06:26:49.461Z,9.00
2022-10-14T06:29:52.001Z,8.88
2022-10-14T06:32:54.472Z,8.40
2022-10-14T06:35:57.066Z,19.55
2022-10-14T06:38:59.478Z,8.38
2022-10-14T06:42:03.140Z,11.15
2022-10-14T06:45:06.866Z,10.35
2022-10-14T06:48:15.407Z,16.88
2022-10-14T06:51:18.083Z,9.85
2022-10-14T06:54:20.227Z,12.10
2022-10-14T06:57:22.315Z,15.02
2022-10-14T07:00:24.553Z,9.52
2022-10-14T07:03:26.662Z,15.07
2022-10-14T07:06:33.781Z,15.10
2022-10-14T07:09:35.916Z,19.80
2022-10-14T07:12:37.987Z,12.80
2022-10-14T07:15:41.229Z,11.55
2022-10-14T07:18:43.957Z,9.30
2022-10-14T07:21:46.974Z,15.77
2022-10-14T07:24:49.046Z,13.80
2022-10-14T07:27:53.541Z,6.90
2022-10-14T07:31:04.186Z,6.07
2022-10-14T07:34:06.539Z,8.60
2022-10-14T07:37:08.647Z,8.13
2022-10-14T07:40:12.051Z,12.93
2022-10-14T07:46:28.518Z,6.70
2022-10-14T07:49:30.542Z,7.68
2022-10-14T07:52:32.700Z,7.35
2022-10-14T07:55:34.747Z,5.88
2022-10-14T07:58:39.901Z,9.20
2022-10-14T08:01:49.979Z,12.50
2022-10-14T08:05:18.964Z,23.75
2022-10-14T08:08:23.508Z,9.50
2022-10-14T08:11:27.733Z,8.15
2022-10-14T08:14:29.785Z,5.07
2022-10-14T08:17:31.849Z,5.50
2022-10-14T08:20:34.707Z,5.35
2022-10-14T08:23:36.822Z,8.88
2022-10-14T08:26:41.515Z,7.65
2022-10-14T08:29:43.654Z,5.45
2022-10-14T08:32:45.728Z,3.92
2022-10-14T08:35:53.010Z,4.00
2022-10-14T08:38:56.428Z,3.90
2022-10-14T08:42:05.822Z,3.40
2022-10-14T08:45:17.882Z,3.92
2022-10-14T08:48:24.292Z,6.22
2022-10-14T08:51:30.759Z,5.50
2022-10-14T08:54:36.682Z,8.25
2022-10-14T08:57:48.257Z,13.88
2022-10-14T09:00:52.676Z,8.25
2022-10-14T09:04:12.363Z,8.43
2022-10-14T09:07:18.198Z,6.32
2022-10-14T09:10:30.701Z,11.63
2022-10-14T09:13:37.168Z,6.20
2022-10-14T09:16:40.835Z,8.40
2022-10-14T09:20:00.592Z,8.27
2022-10-14T09:23:08.466Z,7.70
2022-10-14T09:26:19.511Z,4.88
2022-10-14T09:29:40.838Z,8.57
2022-10-14T09:32:49.689Z,7.90
2022-10-14T09:35:52.201Z,8.15
2022-10-14T09:38:56.319Z,8.23
2022-10-14T09:41:59.803Z,6.53
2022-10-14T09:45:12.925Z,10.40
2022-10-14T09:48:19.191Z,12.75
2022-10-14T09:51:31.196Z,10.48
2022-10-14T09:54:34.559Z,8.35
2022-10-14T09:57:36.760Z,7.60
2022-10-14T10:00:39.079Z,8.30
2022-10-14T10:03:41.363Z,9.27
2022-10-14T10:06:54.086Z,7.90
2022-10-14T10:09:58.686Z,7.95
2022-10-14T10:13:01.683Z,7.00
2022-10-14T10:16:06.037Z,12.35
2022-10-14T10:19:30.344Z,7.85
2022-10-14T10:22:36.783Z,9.15
2022-10-14T10:25:38.827Z,4.40
2022-10-14T10:28:46.623Z,5.70
2022-10-14T10:32:20.779Z,9.32
2022-10-14T10:35:35.128Z,3.25
2022-10-14T10:38:49.747Z,3.28
2022-10-14T10:42:12.999Z,4.28
2022-10-14T10:45:36.450Z,5.47
2022-10-14T10:48:55.283Z,6.63
2022-10-14T10:52:21.827Z,9.52
2022-10-14T10:55:58.015Z,7.25
2022-10-14T10:59:41.528Z,3.10
2022-10-14T11:02:49.441Z,9.75
2022-10-14T11:06:40.874Z,3.50
2022-10-14T11:10:42.573Z,5.00
2022-10-14T11:14:05.930Z,4.47
2022-10-14T11:18:06.987Z,5.00
2022-10-14T11:21:44.633Z,5.40
2022-10-14T11:24:58.991Z,3.63
2022-10-14T11:28:16.332Z,5.63
2022-10-14T11:31:31.964Z,6.45
2022-10-14T11:35:06.203Z,5.55
2022-10-14T11:38:27.445Z,5.53
2022-10-14T11:41:50.515Z,3.10
2022-10-14T11:45:20.457Z,4.33
2022-10-14T11:48:40.212Z,6.63
2022-10-14T11:52:04.228Z,6.45
2022-10-14T11:55:14.478Z,7.50
2022-10-14T11:58:23.027Z,8.25
2022-10-14T12:01:34.252Z,7.38
2022-10-14T12:04:44.953Z,8.43
2022-10-14T12:08:21.395Z,7.82
2022-10-14T12:11:34.414Z,12.43
2022-10-14T12:14:46.271Z,7.75
2022-10-14T12:17:59.939Z,4.32
2022-10-14T12:21:50.606Z,4.50
2022-10-14T12:24:55.589Z,4.50
2022-10-14T12:27:58.453Z,6.75
2022-10-14T12:31:26.041Z,3.38
2022-10-14T12:34:40.945Z,6.45
2022-10-14T12:37:51.065Z,5.20
2022-10-14T12:40:53.729Z,4.15
2022-10-14T12:44:24.059Z,5.82
2022-10-14T12:47:35.281Z,8.65
2022-10-14T12:50:42.343Z,5.55
2022-10-14T12:54:05.018Z,5.43
2022-10-14T12:57:37.398Z,7.88
2022-10-14T13:00:43.657Z,5.00
2022-10-14T13:07:47.551Z,7.68
2022-10-14T13:11:13.630Z,4.13
2022-10-14T13:14:23.215Z,6.75
2022-10-14T13:17:45.528Z,4.85
2022-10-14T13:20:51.869Z,8.13
2022-10-14T13:23:55.354Z,6.43
2022-10-14T13:27:07.201Z,4.05
2022-10-14T13:30:35.382Z,4.97
2022-10-14T13:33:47.083Z,5.90
2022-10-14T13:37:20.676Z,5.68
2022-10-14T13:40:35.330Z,3.90
2022-10-14T13:43:44.204Z,8.02
2022-10-14T13:46:48.378Z,3.75
2022-10-14T13:49:51.487Z,5.47
2022-10-14T13:53:15.562Z,17.33
2022-10-14T13:56:27.257Z,6.07
2022-10-14T13:59:43.419Z,5.00
2022-10-14T14:02:50.193Z,7.07
2022-10-14T14:05:57.141Z,6.95
2022-10-14T14:09:05.521Z,14.68
2022-10-14T14:12:07.955Z,6.20
2022-10-14T14:15:21.603Z,5.47
2022-10-14T14:18:49.227Z,8.23
2022-10-14T14:22:24.379Z,5.22
2022-10-14T14:25:34.433Z,7.05
2022-10-14T14:28:37.633Z,3.25
2022-10-14T14:32:06.594Z,3.15
2022-10-14T14:35:11.820Z,4.82
2022-10-14T14:38:34.767Z,4.30
2022-10-14T14:41:36.916Z,7.60
2022-10-14T14:44:40.182Z,3.63
2022-10-14T14:47:42.777Z,5.22
2022-10-14T14:50:45.763Z,5.90
2022-10-14T14:53:52.892Z,3.53
2022-10-14T14:57:03.069Z,5.65
2022-10-14T15:00:07.860Z,8.25
2022-10-14T15:03:09.903Z,7.80
2022-10-14T15:06:16.909Z,5.18
2022-10-14T15:09:43.847Z,7.28
2022-10-14T15:12:57.181Z,6.07
2022-10-14T15:15:59.870Z,11.45
2022-10-14T15:19:23.197Z,5.40
2022-10-14T15:22:32.558Z,4.90
2022-10-14T15:25:34.812Z,6.55
2022-10-14T15:28:37.040Z,5.40
2022-10-14T15:31:40.752Z,6.43
2022-10-14T15:34:42.790Z,3.10
2022-10-14T15:37:45.081Z,4.53
2022-10-14T15:40:48.501Z,4.07
2022-10-14T15:43:50.612Z,3.67
2022-10-14T15:47:11.014Z,3.63
2022-10-14T15:50:22.511Z,2.50
2022-10-14T15:53:25.725Z,5.50
2022-10-14T15:56:29.818Z,4.70
2022-10-14T15:59:32.926Z,5.50
2022-10-14T16:02:35.931Z,1.88
2022-10-14T16:05:40.896Z,2.65
2022-10-14T16:08:44.203Z,1.77
2022-10-14T16:11:48.156Z,4.55
2022-10-14T16:14:50.495Z,3.88
2022-10-14T16:17:56.687Z,4.72
2022-10-14T16:20:59.694Z,5.60
2022-10-14T16:24:02.424Z,3.55
2022-10-14T16:27:04.517Z,6.05
2022-10-14T16:30:07.365Z,4.00
2022-10-14T16:39:19.582Z,3.22
2022-10-14T16:42:21.681Z,3.70
2022-10-14T16:45:23.682Z,5.32
2022-10-14T16:48:26.935Z,3.45
2022-10-14T16:51:31.586Z,6.60
2022-10-14T16:54:33.757Z,2.25
2022-10-14T16:57:35.795Z,2.15
2022-10-14T17:00:38.072Z,4.10
2022-10-14T17:03:40.038Z,5.97
2022-10-14T17:06:43.070Z,3.70
2022-10-14T17:09:46.260Z,1.88
2022-10-14T17:12:48.398Z,4.13
2022-10-14T17:15:51.604Z,2.42
2022-10-14T17:18:53.781Z,2.60
2022-10-14T17:21:56.589Z,2.92
2022-10-14T17:24:58.790Z,3.03
2022-10-14T17:31:08.724Z,2.70
2022-10-14T17:34:10.797Z,2.13
2022-10-14T17:37:12.821Z,2.97
2022-10-14T17:40:14.922Z,4.75
2022-10-14T17:43:17.078Z,5.35
2022-10-14T17:46:21.467Z,2.28
2022-10-14T17:49:23.518Z,4.47
2022-10-14T17:52:25.611Z,1.60
2022-10-14T17:55:27.940Z,1.58
2022-10-14T17:58:30.574Z,2.10
2022-10-14T18:05:04.193Z,2.17
2022-10-14T18:08:06.825Z,6.10
2022-10-14T18:11:11.017Z,3.35
2022-10-14T18:14:14.408Z,8.35
2022-10-14T18:17:16.661Z,4.05
2022-10-14T18:20:18.787Z,4.88
2022-10-14T18:23:20.856Z,8.13
2022-10-14T18:26:23.307Z,6.03
2022-10-14T18:29:25.476Z,6.82
2022-10-14T18:32:27.768Z,7.30
2022-10-14T18:35:29.794Z,5.30
2022-10-14T18:38:32.286Z,4.47
2022-10-14T18:41:37.025Z,2.28
2022-10-14T18:44:39.033Z,5.95
2022-10-14T18:47:41.084Z,3.95
2022-10-14T18:50:43.118Z,4.53
2022-10-14T18:53:47.820Z,7.50
2022-10-14T18:56:49.827Z,3.35
2022-10-14T18:59:51.902Z,10.93
2022-10-14T19:02:53.912Z,6.20
2022-10-14T19:05:58.288Z,7.32
2022-10-14T19:09:04.074Z,5.38
2022-10-14T19:12:27.094Z,8.13
2022-10-14T19:15:34.046Z,4.82
2022-10-14T19:18:36.270Z,4.15
2022-10-14T19:21:39.375Z,10.45
2022-10-14T19:24:41.401Z,8.48
2022-10-14T19:27:44.122Z,4.85
2022-10-14T19:30:46.302Z,4.70
2022-10-14T19:33:48.838Z,5.63
2022-10-14T19:36:51.173Z,6.78
2022-10-14T19:39:53.377Z,4.15
2022-10-14T19:42:57.116Z,7.72
2022-10-14T19:46:00.276Z,4.78
2022-10-14T19:49:04.934Z,11.45
2022-10-14T19:52:08.028Z,7.30
2022-10-14T19:55:10.172Z,2.63
2022-10-14T19:58:12.240Z,6.80
2022-10-14T20:01:16.899Z,2.15
2022-10-14T20:04:22.732Z,6.35
2022-10-14T20:07:27.229Z,4.60
2022-10-14T20:10:29.372Z,7.30
2022-10-14T20:13:31.965Z,1.92
2022-10-14T20:16:34.336Z,4.85
2022-10-14T20:19:37.875Z,7.22
2022-10-14T20:22:39.965Z,2.57
2022-10-14T20:25:42.537Z,2.58
2022-10-14T20:28:44.782Z,3.47
2022-10-14T20:31:46.878Z,5.75
2022-10-14T20:34:49.095Z,5.30
2022-10-14T20:37:51.262Z,4.93
2022-10-14T20:40:53.279Z,4.80
2022-10-14T20:43:56.253Z,3.88
2022-10-14T20:46:58.576Z,2.40
2022-10-14T20:50:01.789Z,5.37
2022-10-14T20:53:05.472Z,4.75
2022-10-14T20:56:10.176Z,4.90
2022-10-14T20:59:13.891Z,6.15
2022-10-14T21:02:20.995Z,4.13
2022-10-14T21:05:23.128Z,9.20
2022-10-14T21:08:25.255Z,3.63
2022-10-14T21:11:28.188Z,3.33
2022-10-14T21:14:30.782Z,3.63
2022-10-14T21:17:33.031Z,2.40
2022-10-14T21:20:35.440Z,3.70
2022-10-14T21:23:37.578Z,6.00
2022-10-14T21:26:39.907Z,2.10
2022-10-14T21:29:41.959Z,3.60
2022-10-14T21:32:44.131Z,3.40
2022-10-14T21:35:46.492Z,1.67
2022-10-14T21:38:48.581Z,3.10
2022-10-14T21:41:51.006Z,2.05
2022-10-14T21:44:53.450Z,2.38
2022-10-14T21:47:55.576Z,2.05
2022-10-14T21:51:17.319Z,2.15
2022-10-14T21:54:19.472Z,4.00
2022-10-14T21:57:22.007Z,7.15
2022-10-14T22:00:24.206Z,8.30
2022-10-14T22:03:26.346Z,5.55
2022-10-14T22:06:28.923Z,3.80
2022-10-14T22:09:31.700Z,2.50
2022-10-14T22:12:34.838Z,1.85
2022-10-14T22:15:43.576Z,3.58
2022-10-14T22:18:48.317Z,9.38
2022-10-14T22:21:52.767Z,5.47
2022-10-14T22:24:55.003Z,7.53
2022-10-14T22:27:57.107Z,5.65
2022-10-14T22:31:09.056Z,3.47
2022-10-14T22:34:19.757Z,1.30
2022-10-14T22:37:22.591Z,3.00
2022-10-14T22:40:24.986Z,1.55
2022-10-14T22:43:27.254Z,2.95
2022-10-14T22:46:31.503Z,2.42
2022-10-14T22:49:33.583Z,2.45
2022-10-14T22:52:35.589Z,3.22
2022-10-14T22:55:37.882Z,4.50
2022-10-14T22:58:40.061Z,2.58
2022-10-14T23:01:43.122Z,2.30
2022-10-14T23:04:45.685Z,0.82
2022-10-14T23:07:47.937Z,3.95
2022-10-14T23:10:50.007Z,1.77
2022-10-14T23:13:52.855Z,1.63
2022-10-14T23:16:54.871Z,1.75
2022-10-14T23:19:56.933Z,1.52
2022-10-14T23:22:58.986Z,3.13
2022-10-14T23:26:01.015Z,1.20
2022-10-14T23:29:07.340Z,3.13
2022-10-14T23:32:09.476Z,3.58
2022-10-14T23:35:11.662Z,1.63
2022-10-14T23:38:13.853Z,1.73
2022-10-14T23:41:16.640Z,2.67
2022-10-14T23:44:19.643Z,2.42
2022-10-14T23:47:21.972Z,1.70
2022-10-14T23:50:24.421Z,3.00
2022-10-14T23:53:26.930Z,8.80
2022-10-14T23:56:29.023Z,2.17
2022-10-14T23:59:31.142Z,1.67
